createdAt,value
2023-03-16T00:02:19.451Z,10.41
2023-03-16T00:04:47.430Z,10.24
2023-03-16T00:07:15.849Z,11.70
2023-03-16T00:09:43.899Z,12.80
2023-03-16T00:12:16.991Z,11.10
2023-03-16T00:14:49.586Z,11.36
2023-03-16T00:17:19.414Z,11.29
2023-03-16T00:19:55.931Z,10.81
2023-03-16T00:22:29.343Z,10.89
2023-03-16T00:25:05.228Z,11.03
2023-03-16T00:27:33.142Z,11.56
2023-03-16T00:30:06.385Z,10.83
2023-03-16T00:32:36.352Z,10.94
2023-03-16T00:35:09.679Z,10.28
2023-03-16T00:37:42.089Z,10.60
2023-03-16T00:40:14.437Z,10.63
2023-03-16T00:42:43.891Z,11.30
2023-03-16T00:45:11.961Z,11.17
2023-03-16T00:47:39.865Z,11.70
2023-03-16T00:50:08.182Z,11.65
2023-03-16T00:52:36.986Z,12.10
2023-03-16T00:55:06.325Z,12.29
2023-03-16T00:57:34.342Z,12.58
2023-03-16T01:00:12.905Z,11.79
2023-03-16T01:02:43.358Z,11.68
2023-03-16T01:05:13.346Z,11.55
2023-03-16T01:07:43.495Z,11.23
2023-03-16T01:10:12.085Z,11.40
2023-03-16T01:12:40.037Z,11.49
2023-03-16T01:15:08.800Z,11.06
2023-03-16T01:17:37.155Z,11.62
2023-03-16T01:20:09.064Z,10.99
2023-03-16T01:22:37.370Z,10.92
2023-03-16T01:25:06.915Z,11.33
2023-03-16T01:27:35.197Z,10.67
2023-03-16T01:30:06.125Z,10.99
2023-03-16T01:32:36.321Z,10.98
2023-03-16T01:35:08.629Z,10.61
2023-03-16T01:37:37.866Z,10.19
2023-03-16T01:40:17.401Z,10.87
2023-03-16T01:42:58.608Z,10.91
2023-03-16T01:46:04.658Z,10.20
2023-03-16T01:49:12.761Z,10.28
2023-03-16T01:52:01.544Z,9.72
2023-03-16T01:54:38.254Z,9.46
2023-03-16T01:57:22.196Z,9.95
2023-03-16T02:00:10.711Z,9.97
2023-03-16T02:02:56.936Z,10.33
2023-03-16T02:05:51.065Z,9.13
2023-03-16T02:08:23.008Z,9.89
2023-03-16T02:10:54.920Z,9.54
2023-03-16T02:13:25.785Z,9.76
2023-03-16T02:15:54.456Z,9.11
2023-03-16T02:18:23.382Z,9.25
2023-03-16T02:21:20.951Z,9.64
2023-03-16T02:23:51.457Z,9.80
2023-03-16T02:26:33.247Z,9.75
2023-03-16T02:29:33.608Z,9.35
2023-03-16T02:32:06.002Z,9.52
2023-03-16T02:34:36.037Z,9.31
2023-03-16T02:37:04.525Z,9.13
2023-03-16T02:39:34.471Z,8.73
2023-03-16T02:42:02.368Z,8.72
2023-03-16T02:44:35.506Z,8.56
2023-03-16T02:47:11.616Z,8.37
2023-03-16T02:49:45.881Z,8.58
2023-03-16T02:52:14.409Z,8.28
2023-03-16T02:54:42.334Z,8.67
2023-03-16T02:57:11.025Z,8.43
2023-03-16T02:59:39.249Z,8.50
2023-03-16T03:02:09.750Z,8.43
2023-03-16T03:04:38.821Z,8.34
2023-03-16T03:07:07.824Z,8.27
2023-03-16T03:09:53.695Z,8.63
2023-03-16T03:12:22.710Z,8.84
2023-03-16T03:14:52.406Z,8.60
2023-03-16T03:17:22.161Z,8.67
2023-03-16T03:19:49.966Z,8.85
2023-03-16T03:22:18.838Z,8.94
2023-03-16T03:24:46.776Z,8.67
2023-03-16T03:27:14.886Z,9.28
2023-03-16T03:29:45.133Z,8.92
2023-03-16T03:32:14.103Z,8.65
2023-03-16T03:34:43.487Z,8.65
2023-03-16T03:37:12.804Z,8.71
2023-03-16T03:39:43.201Z,8.76
2023-03-16T03:42:13.927Z,9.17
2023-03-16T03:44:42.069Z,9.30
2023-03-16T03:47:11.314Z,9.48
2023-03-16T03:49:39.192Z,9.27
2023-03-16T03:52:08.180Z,8.89
2023-03-16T03:54:36.813Z,9.20
2023-03-16T03:57:10.009Z,8.86
2023-03-16T03:59:43.728Z,9.14
2023-03-16T04:02:24.002Z,8.81
2023-03-16T04:04:55.343Z,9.60
2023-03-16T04:07:24.305Z,9.27
2023-03-16T04:09:55.783Z,9.83
2023-03-16T04:12:28.994Z,9.54
2023-03-16T04:14:57.533Z,9.35
2023-03-16T04:17:27.911Z,9.25
2023-03-16T04:19:58.874Z,9.17
2023-03-16T04:22:26.780Z,9.04
2023-03-16T04:24:55.931Z,9.01
2023-03-16T04:27:25.805Z,9.36
2023-03-16T04:29:58.740Z,9.20
2023-03-16T04:32:28.480Z,9.50
2023-03-16T04:34:58.515Z,9.16
2023-03-16T04:37:37.858Z,8.79
2023-03-16T04:40:11.895Z,8.95
2023-03-16T04:42:40.015Z,8.95
2023-03-16T04:45:10.813Z,8.94
2023-03-16T04:47:39.416Z,8.82
2023-03-16T04:50:07.891Z,8.99
2023-03-16T04:52:37.077Z,9.06
2023-03-16T04:55:06.017Z,9.04
2023-03-16T04:57:53.904Z,8.92
2023-03-16T05:00:23.736Z,8.35
2023-03-16T05:03:14.348Z,8.46
2023-03-16T05:05:42.592Z,8.83
2023-03-16T05:08:13.532Z,9.39
2023-03-16T05:10:44.852Z,8.38
2023-03-16T05:13:14.485Z,8.69
2023-03-16T05:15:48.351Z,8.31
2023-03-16T05:18:24.776Z,8.11
2023-03-16T05:20:57.072Z,8.42
2023-03-16T05:23:29.660Z,8.91
2023-03-16T05:26:03.202Z,9.23
2023-03-16T05:28:33.771Z,10.05
2023-03-16T05:31:08.798Z,9.38
2023-03-16T05:33:44.586Z,9.35
2023-03-16T05:36:17.637Z,9.37
2023-03-16T05:38:49.145Z,10.37
2023-03-16T05:41:27.938Z,10.57
2023-03-16T05:44:11.113Z,10.58
2023-03-16T05:46:54.680Z,10.50
2023-03-16T05:49:23.605Z,9.79
2023-03-16T05:51:52.971Z,9.45
2023-03-16T05:54:20.976Z,9.60
2023-03-16T05:56:58.189Z,9.65
2023-03-16T05:59:27.443Z,9.89
2023-03-16T06:01:58.082Z,9.95
2023-03-16T06:04:29.140Z,11.92
2023-03-16T06:06:57.214Z,13.34
2023-03-16T06:09:28.430Z,12.91
2023-03-16T06:11:56.604Z,12.78
2023-03-16T06:14:24.934Z,12.40
2023-03-16T06:16:55.286Z,12.93
2023-03-16T06:19:23.460Z,13.73
2023-03-16T06:21:56.760Z,11.86
2023-03-16T06:24:24.718Z,11.56
2023-03-16T06:26:53.191Z,13.42
2023-03-16T06:29:25.081Z,13.02
2023-03-16T06:31:54.920Z,11.06
2023-03-16T06:34:23.985Z,10.50
2023-03-16T06:36:52.073Z,11.48
2023-03-16T06:39:21.518Z,11.21
2023-03-16T06:41:51.456Z,10.73
2023-03-16T06:44:19.451Z,9.37
2023-03-16T06:47:14.494Z,10.71
2023-03-16T06:49:42.420Z,11.57
2023-03-16T06:52:19.541Z,15.71
2023-03-16T06:54:47.466Z,17.94
2023-03-16T06:57:17.047Z,18.30
2023-03-16T06:59:47.299Z,12.99
2023-03-16T07:02:17.120Z,12.17
2023-03-16T07:04:45.931Z,13.29
2023-03-16T07:07:13.985Z,12.38
2023-03-16T07:09:43.592Z,11.46
2023-03-16T07:12:11.712Z,11.86
2023-03-16T07:14:39.856Z,11.75
2023-03-16T07:17:10.450Z,11.49
2023-03-16T07:19:39.650Z,12.56
2023-03-16T07:22:07.649Z,13.29
2023-03-16T07:24:39.102Z,13.47
2023-03-16T07:27:09.076Z,12.47
2023-03-16T07:29:37.993Z,12.40
2023-03-16T07:32:06.213Z,13.57
2023-03-16T07:34:38.784Z,15.11
2023-03-16T07:37:09.270Z,14.89
2023-03-16T07:39:38.342Z,16.12
2023-03-16T07:42:15.048Z,19.95
2023-03-16T07:45:06.657Z,24.01
2023-03-16T07:47:35.594Z,22.91
2023-03-16T07:50:12.264Z,19.11
2023-03-16T07:52:44.958Z,20.01
2023-03-16T07:55:15.165Z,21.13
2023-03-16T07:57:47.982Z,23.80
2023-03-16T08:00:24.124Z,27.72
2023-03-16T08:02:53.731Z,27.07
2023-03-16T08:05:21.920Z,26.03
2023-03-16T08:07:57.280Z,25.81
2023-03-16T08:10:28.346Z,24.07
2023-03-16T08:13:09.135Z,18.03
2023-03-16T08:15:42.460Z,15.70
2023-03-16T08:18:17.615Z,16.04
2023-03-16T08:20:46.824Z,12.16
2023-03-16T08:23:15.571Z,9.62
2023-03-16T08:25:43.883Z,8.17
2023-03-16T08:28:16.190Z,7.39
2023-03-16T08:30:48.867Z,7.37
2023-03-16T08:33:44.550Z,7.40
2023-03-16T08:36:15.710Z,7.50
2023-03-16T08:39:00.058Z,6.71
2023-03-16T08:41:37.358Z,6.93
2023-03-16T08:44:10.789Z,6.68
2023-03-16T08:46:39.439Z,7.34
2023-03-16T08:49:08.140Z,7.38
2023-03-16T08:51:37.076Z,6.53
2023-03-16T08:54:05.005Z,6.86
2023-03-16T08:56:32.834Z,7.32
2023-03-16T08:59:00.769Z,6.76
2023-03-16T09:01:29.567Z,6.20
2023-03-16T09:03:58.000Z,6.47
2023-03-16T09:06:27.777Z,7.01
2023-03-16T09:08:56.229Z,7.56
2023-03-16T09:17:46.243Z,7.09
2023-03-16T09:20:35.215Z,7.00
2023-03-16T09:23:05.603Z,6.82
2023-03-16T09:25:34.653Z,7.28
2023-03-16T09:28:04.690Z,6.21
2023-03-16T09:30:32.956Z,6.44
2023-03-16T09:33:01.000Z,5.89
2023-03-16T09:35:34.400Z,6.27
2023-03-16T09:38:06.968Z,5.15
2023-03-16T09:40:37.444Z,4.58
2023-03-16T09:43:38.784Z,4.40
2023-03-16T09:46:26.182Z,5.55
2023-03-16T09:48:57.959Z,5.32
2023-03-16T09:52:00.691Z,4.97
2023-03-16T09:55:13.209Z,5.46
2023-03-16T09:57:44.807Z,5.34
2023-03-16T10:00:31.094Z,4.16
2023-03-16T10:03:39.446Z,4.30
2023-03-16T10:06:13.957Z,3.18
2023-03-16T10:09:00.481Z,3.97
2023-03-16T10:11:52.908Z,4.52
2023-03-16T10:14:45.278Z,4.83
2023-03-16T10:17:47.090Z,4.39
2023-03-16T10:20:18.211Z,5.01
2023-03-16T10:22:48.486Z,4.04
2023-03-16T10:25:29.739Z,4.54
2023-03-16T10:27:59.266Z,4.95
2023-03-16T10:30:31.383Z,4.59
2023-03-16T10:33:06.239Z,4.63
2023-03-16T10:35:50.425Z,4.59
2023-03-16T10:38:40.192Z,5.08
2023-03-16T10:41:32.692Z,4.89
2023-03-16T10:44:12.404Z,4.91
2023-03-16T10:46:48.720Z,4.89
2023-03-16T10:49:26.189Z,4.66
2023-03-16T10:52:02.120Z,4.58
2023-03-16T10:54:40.779Z,4.71
2023-03-16T10:57:30.846Z,4.34
2023-03-16T11:00:20.332Z,4.03
2023-03-16T11:02:50.548Z,4.01
2023-03-16T11:05:19.296Z,4.10
2023-03-16T11:08:18.309Z,4.50
2023-03-16T11:10:58.156Z,4.80
2023-03-16T11:13:34.835Z,4.50
2023-03-16T11:16:21.481Z,3.91
2023-03-16T11:19:04.796Z,3.98
2023-03-16T11:22:04.211Z,4.82
2023-03-16T11:24:56.483Z,4.69
2023-03-16T11:27:44.014Z,5.19
2023-03-16T11:30:24.008Z,4.58
2023-03-16T11:32:54.685Z,4.19
2023-03-16T11:35:59.265Z,3.94
2023-03-16T11:38:51.229Z,3.93
2023-03-16T11:42:10.515Z,4.37
2023-03-16T11:44:50.104Z,4.29
2023-03-16T11:47:57.307Z,4.21
2023-03-16T11:50:50.195Z,3.61
2023-03-16T11:53:48.121Z,3.20
2023-03-16T11:56:28.903Z,2.66
2023-03-16T11:59:27.433Z,2.86
2023-03-16T12:02:21.809Z,3.62
2023-03-16T12:05:33.732Z,4.19
2023-03-16T12:08:41.361Z,4.56
2023-03-16T12:11:27.504Z,3.61
2023-03-16T12:14:07.724Z,3.41
2023-03-16T12:17:15.777Z,3.03
2023-03-16T12:20:05.841Z,2.82
2023-03-16T12:22:39.870Z,3.02
2023-03-16T12:25:35.208Z,3.04
2023-03-16T12:28:29.402Z,3.58
2023-03-16T12:31:12.502Z,3.58
2023-03-16T12:33:57.130Z,3.55
2023-03-16T12:36:47.068Z,3.75
2023-03-16T12:39:40.702Z,3.52
2023-03-16T12:42:27.215Z,3.48
2023-03-16T12:45:17.106Z,3.69
2023-03-16T12:48:11.430Z,3.27
2023-03-16T12:50:58.962Z,3.60
2023-03-16T12:53:55.508Z,3.92
2023-03-16T12:56:39.318Z,2.81
2023-03-16T12:59:10.823Z,2.87
2023-03-16T13:01:42.686Z,3.65
2023-03-16T13:04:16.413Z,3.75
2023-03-16T13:06:49.719Z,3.50
2023-03-16T13:09:25.777Z,2.90
2023-03-16T13:11:54.394Z,2.89
2023-03-16T13:14:34.610Z,3.02
2023-03-16T13:17:26.204Z,3.58
2023-03-16T13:20:03.149Z,3.54
2023-03-16T13:22:45.758Z,3.12
2023-03-16T13:25:43.436Z,3.51
2023-03-16T13:28:14.680Z,2.96
2023-03-16T13:30:48.699Z,3.61
2023-03-16T13:33:33.137Z,4.18
2023-03-16T13:36:01.228Z,3.95
2023-03-16T13:38:30.740Z,2.96
2023-03-16T13:41:06.131Z,2.83
2023-03-16T13:43:39.853Z,2.28
2023-03-16T13:46:16.062Z,2.08
2023-03-16T13:48:44.655Z,2.16
2023-03-16T13:51:18.714Z,2.35
2023-03-16T13:53:48.275Z,2.26
2023-03-16T13:56:22.806Z,2.75
2023-03-16T13:58:52.619Z,2.35
2023-03-16T14:01:33.226Z,2.18
2023-03-16T14:04:08.618Z,1.61
2023-03-16T14:06:37.876Z,1.59
2023-03-16T14:09:13.165Z,1.71
2023-03-16T14:11:42.990Z,1.85
2023-03-16T14:14:24.803Z,1.80
2023-03-16T14:16:54.943Z,1.97
2023-03-16T14:19:28.187Z,2.00
2023-03-16T14:21:56.618Z,1.55
2023-03-16T14:24:34.806Z,1.30
2023-03-16T14:27:18.184Z,1.38
2023-03-16T14:29:53.733Z,1.93
2023-03-16T14:32:30.645Z,1.74
2023-03-16T14:35:17.621Z,1.77
2023-03-16T14:37:46.098Z,1.59
2023-03-16T14:40:31.037Z,1.63
2023-03-16T14:43:03.364Z,1.61
2023-03-16T14:45:35.623Z,1.82
2023-03-16T14:48:07.426Z,1.91
2023-03-16T14:50:35.529Z,2.08
2023-03-16T14:53:04.537Z,2.57
2023-03-16T14:55:33.306Z,2.18
2023-03-16T14:58:05.009Z,2.17
2023-03-16T15:00:42.797Z,1.94
2023-03-16T15:03:20.756Z,2.36
2023-03-16T15:05:51.415Z,1.93
2023-03-16T15:08:27.517Z,1.70
2023-03-16T15:11:01.199Z,1.47
2023-03-16T15:13:52.746Z,1.97
2023-03-16T15:16:23.086Z,2.54
2023-03-16T15:18:52.322Z,2.41
2023-03-16T15:21:24.033Z,2.24
2023-03-16T15:23:52.291Z,1.69
2023-03-16T15:26:27.133Z,2.03
2023-03-16T15:28:55.914Z,1.97
2023-03-16T15:31:24.846Z,2.15
2023-03-16T15:33:52.804Z,2.44
2023-03-16T15:36:23.179Z,2.14
2023-03-16T15:38:53.806Z,2.21
2023-03-16T15:41:23.414Z,1.77
2023-03-16T15:43:52.736Z,1.78
2023-03-16T15:46:21.280Z,1.63
2023-03-16T15:48:49.367Z,1.61
2023-03-16T15:51:35.513Z,1.63
2023-03-16T15:54:07.001Z,1.84
2023-03-16T15:56:52.784Z,2.98
2023-03-16T15:59:24.465Z,2.38
2023-03-16T16:01:53.850Z,3.41
2023-03-16T16:04:25.175Z,2.81
2023-03-16T16:06:57.231Z,2.77
2023-03-16T16:09:26.530Z,2.82
2023-03-16T16:11:56.596Z,2.50
2023-03-16T16:14:28.406Z,2.15
2023-03-16T16:16:57.312Z,1.93
2023-03-16T16:19:27.796Z,1.50
2023-03-16T16:21:55.722Z,1.91
2023-03-16T16:24:26.831Z,2.63
2023-03-16T16:26:56.083Z,1.84
2023-03-16T16:29:27.606Z,2.06
2023-03-16T16:31:56.896Z,2.08
2023-03-16T16:34:27.528Z,2.18
2023-03-16T16:36:57.713Z,2.07
2023-03-16T16:39:26.830Z,3.59
2023-03-16T16:41:57.114Z,3.05
2023-03-16T16:44:32.052Z,7.27
2023-03-16T16:47:02.642Z,7.07
2023-03-16T16:49:31.886Z,5.71
2023-03-16T16:52:00.307Z,4.62
2023-03-16T16:54:31.796Z,3.96
2023-03-16T16:57:01.705Z,3.07
2023-03-16T16:59:33.506Z,3.17
2023-03-16T17:02:19.217Z,2.27
2023-03-16T17:04:47.471Z,2.13
2023-03-16T17:07:16.593Z,2.18
2023-03-16T17:09:44.643Z,2.22
2023-03-16T17:12:22.323Z,1.89
2023-03-16T17:14:52.234Z,6.12
2023-03-16T17:17:22.173Z,3.43
2023-03-16T17:19:50.329Z,2.70
2023-03-16T17:22:22.959Z,2.07
2023-03-16T17:24:53.126Z,2.22
2023-03-16T17:27:30.020Z,2.30
2023-03-16T17:29:58.840Z,1.68
2023-03-16T17:32:29.206Z,3.30
2023-03-16T17:34:57.613Z,2.88
2023-03-16T17:37:25.766Z,2.46
2023-03-16T17:39:55.666Z,2.10
2023-03-16T17:42:26.475Z,2.98
2023-03-16T17:44:55.284Z,2.80
2023-03-16T17:47:28.292Z,3.51
2023-03-16T17:49:57.137Z,3.82
2023-03-16T17:52:26.866Z,3.82
2023-03-16T17:54:55.471Z,4.43
2023-03-16T17:57:28.363Z,8.25
2023-03-16T17:59:56.598Z,5.22
2023-03-16T18:02:34.742Z,5.02
2023-03-16T18:05:07.869Z,4.86
2023-03-16T18:07:36.401Z,5.22
2023-03-16T18:10:04.403Z,5.08
2023-03-16T18:12:32.402Z,5.02
2023-03-16T18:15:01.968Z,6.23
2023-03-16T18:17:32.489Z,11.42
2023-03-16T18:20:01.077Z,5.98
2023-03-16T18:22:29.512Z,4.16
2023-03-16T18:24:57.994Z,4.88
2023-03-16T18:27:25.904Z,5.91
2023-03-16T18:29:55.023Z,4.04
2023-03-16T18:32:30.261Z,6.08
2023-03-16T18:35:01.227Z,5.15
2023-03-16T18:37:31.399Z,5.03
2023-03-16T18:40:00.005Z,6.18
2023-03-16T18:42:29.155Z,4.69
2023-03-16T18:44:57.361Z,4.65
2023-03-16T18:47:31.521Z,4.99
2023-03-16T18:50:00.057Z,5.70
2023-03-16T18:52:31.999Z,5.37
2023-03-16T18:55:00.148Z,5.29
2023-03-16T18:57:31.061Z,5.41
2023-03-16T18:59:58.862Z,4.94
2023-03-16T19:02:39.415Z,5.01
2023-03-16T19:05:15.180Z,5.12
2023-03-16T19:07:46.449Z,5.85
2023-03-16T19:10:50.991Z,5.39
2023-03-16T19:13:24.060Z,6.47
2023-03-16T19:15:56.314Z,6.09
2023-03-16T19:18:26.331Z,5.74
2023-03-16T19:20:57.863Z,5.12
2023-03-16T19:23:36.657Z,5.13
2023-03-16T19:26:06.395Z,4.90
2023-03-16T19:28:37.290Z,4.76
2023-03-16T19:31:16.654Z,4.03
2023-03-16T19:33:45.422Z,4.57
2023-03-16T19:36:30.776Z,4.19
2023-03-16T19:38:59.493Z,4.01
2023-03-16T19:41:32.167Z,4.97
2023-03-16T19:44:16.543Z,4.22
2023-03-16T19:46:46.440Z,3.92
2023-03-16T19:49:20.331Z,3.84
2023-03-16T19:51:51.658Z,4.11
2023-03-16T19:54:33.420Z,4.39
2023-03-16T19:57:15.329Z,5.10
2023-03-16T19:59:46.988Z,6.29
2023-03-16T20:02:31.361Z,5.09
2023-03-16T20:05:01.764Z,4.85
2023-03-16T20:07:30.016Z,5.10
2023-03-16T20:10:00.014Z,5.83
2023-03-16T20:12:29.180Z,5.31
2023-03-16T20:14:59.673Z,4.98
2023-03-16T20:17:29.675Z,4.99
2023-03-16T20:19:58.305Z,4.97
2023-03-16T20:22:28.748Z,5.26
2023-03-16T20:24:58.133Z,5.11
2023-03-16T20:27:27.952Z,5.07
2023-03-16T20:29:56.044Z,5.66
2023-03-16T20:32:35.036Z,6.06
2023-03-16T20:35:04.389Z,6.07
2023-03-16T20:37:34.424Z,5.85
2023-03-16T20:40:05.584Z,6.56
2023-03-16T20:42:34.723Z,6.67
2023-03-16T20:45:16.620Z,6.49
2023-03-16T20:47:45.542Z,6.30
2023-03-16T20:50:31.106Z,6.04
2023-03-16T20:52:58.984Z,6.08
2023-03-16T20:55:29.780Z,5.92
2023-03-16T20:57:58.616Z,6.15
2023-03-16T21:00:31.332Z,6.23
2023-03-16T21:03:01.700Z,6.18
2023-03-16T21:05:29.924Z,6.54
2023-03-16T21:07:58.289Z,7.81
2023-03-16T21:10:27.962Z,7.09
2023-03-16T21:12:57.205Z,7.94
2023-03-16T21:15:29.740Z,8.11
2023-03-16T21:18:03.912Z,7.36
2023-03-16T21:20:33.233Z,6.78
2023-03-16T21:23:02.798Z,6.99
2023-03-16T21:26:03.910Z,6.53
2023-03-16T21:28:34.150Z,5.98
2023-03-16T21:31:02.989Z,6.01
2023-03-16T21:33:35.861Z,5.57
2023-03-16T21:36:17.007Z,5.55
2023-03-16T21:38:46.500Z,5.61
2023-03-16T21:41:14.951Z,5.16
2023-03-16T21:43:43.015Z,4.93
2023-03-16T21:46:18.431Z,4.55
2023-03-16T21:48:49.898Z,4.66
2023-03-16T21:51:22.129Z,4.86
2023-03-16T21:53:53.800Z,4.90
2023-03-16T21:56:24.568Z,4.71
2023-03-16T21:58:53.981Z,5.04
2023-03-16T22:01:26.504Z,5.20
2023-03-16T22:03:57.786Z,5.76
2023-03-16T22:06:32.996Z,6.45
2023-03-16T22:09:01.233Z,5.87
2023-03-16T22:11:31.429Z,5.80
2023-03-16T22:14:01.302Z,5.84
2023-03-16T22:16:40.763Z,6.06
2023-03-16T22:19:14.000Z,5.54
2023-03-16T22:21:44.780Z,5.44
2023-03-16T22:24:30.311Z,6.42
2023-03-16T22:26:59.428Z,6.41
2023-03-16T22:29:30.550Z,6.04
2023-03-16T22:32:04.180Z,6.07
2023-03-16T22:34:39.488Z,5.96
2023-03-16T22:37:09.183Z,6.23
2023-03-16T22:39:38.636Z,6.73
2023-03-16T22:42:37.401Z,6.58
2023-03-16T22:45:19.278Z,6.22
2023-03-16T22:47:49.524Z,6.65
2023-03-16T22:50:20.481Z,6.30
2023-03-16T22:52:53.258Z,6.26
2023-03-16T22:55:29.325Z,6.11
2023-03-16T22:58:23.890Z,5.99
2023-03-16T23:00:51.936Z,6.16
2023-03-16T23:03:22.223Z,6.06
2023-03-16T23:05:50.538Z,6.26
2023-03-16T23:08:23.676Z,6.23
2023-03-16T23:10:52.272Z,6.14
2023-03-16T23:13:27.464Z,5.88
2023-03-16T23:15:56.976Z,5.74
2023-03-16T23:18:26.476Z,5.99
2023-03-16T23:20:54.684Z,6.09
2023-03-16T23:23:24.201Z,5.89
2023-03-16T23:25:52.077Z,6.15
2023-03-16T23:28:24.544Z,5.79
2023-03-16T23:30:52.773Z,5.79
2023-03-16T23:33:21.757Z,5.56
2023-03-16T23:35:50.312Z,6.02
2023-03-16T23:38:20.482Z,5.67
2023-03-16T23:40:49.777Z,5.95
2023-03-16T23:43:17.958Z,4.96
2023-03-16T23:45:49.075Z,4.91
2023-03-16T23:48:19.798Z,4.78
2023-03-16T23:50:51.078Z,4.60
2023-03-16T23:53:19.956Z,4.43
2023-03-16T23:55:48.242Z,4.69
2023-03-16T23:58:16.302Z,4.77
